New Whiteland, Indiana
Current Conditions -  °F | °C
As of 5:54 PM on Monday 22 Dec 2014 (Local Time) from KIND Reporting Station
Light Rain Light Rain  
Wind Chill: 37°   Ceiling: 2500
Heat Index: 43°   Visibility: 8mi
Dew Point: 38°   Wind: 12mph
Humidity: 82%   Direction: 110°ESE
Pressure: 29.72"   Gusts: NA
Location:  39.551°N, 86.0995°W
Report Text: KIND 222254Z 11010KT 8SM -RA OVC025 06/03 A2972 RMK AO2 SLP069 P0001 T00610033
Loading
Personal Weather Stations






























Interactive Weather Map New forecast layout! Learn more

10-Day Weather Forecast

Advertisements
Track Severe Weather on mobile